createdAt,value
2017-05-22T00:03:16.186Z,44.34
2017-05-22T00:08:12.501Z,44.03
2017-05-22T00:09:28.135Z,43.84
2017-05-22T00:12:30.839Z,43.65
2017-05-22T00:21:51.561Z,43.74
2017-05-22T00:23:07.229Z,44.03
2017-05-22T00:23:52.520Z,44.03
2017-05-22T00:25:49.566Z,44.13
2017-05-22T00:27:05.828Z,44.03
2017-05-22T00:27:50.478Z,44.23
2017-05-22T00:29:06.190Z,43.84
2017-05-22T00:30:21.885Z,44.13
2017-05-22T00:31:05.903Z,44.13
2017-05-22T00:35:05.430Z,44.42
2017-05-22T00:37:05.587Z,44.42
2017-05-22T00:37:19.008Z,44.7
2017-05-22T00:38:35.530Z,44.61
2017-05-22T00:39:51.169Z,44.23
2017-05-22T00:42:23.146Z,45
2017-05-22T00:44:26.700Z,45.28
2017-05-22T00:45:51.460Z,45
2017-05-22T00:46:36.061Z,45.09
2017-05-22T00:49:38.074Z,45
2017-05-22T00:49:52.893Z,45.09
2017-05-22T00:53:32.586Z,45.18
2017-05-22T00:53:46.005Z,45.09
2017-05-22T00:58:35.597Z,45
2017-05-22T00:59:19.618Z,45
2017-05-22T01:01:06.448Z,44.9
2017-05-22T01:01:39.888Z,45.18
2017-05-22T01:02:24.413Z,45
2017-05-22T01:03:50.642Z,44.8
2017-05-22T01:05:05.848Z,44.7
2017-05-22T01:05:50.438Z,45.09
2017-05-22T01:08:53.034Z,44.7
2017-05-22T01:10:08.812Z,44.8
2017-05-22T01:11:25.968Z,44.8
2017-05-22T01:12:55.464Z,44.7
2017-05-22T01:16:10.501Z,44.7
2017-05-22T01:17:01.166Z,44.61
2017-05-22T01:20:47.083Z,45
2017-05-22T01:21:34.896Z,44.61
2017-05-22T01:23:50.433Z,43.94
2017-05-22T01:26:53.227Z,41.44
2017-05-22T01:30:02.363Z,39.41
2017-05-22T01:31:18.032Z,38.74
2017-05-22T01:32:15.573Z,38.45
2017-05-22T01:32:44.260Z,38.35
2017-05-22T01:35:49.382Z,37.41
2017-05-22T01:36:53.958Z,36.91
2017-05-22T01:40:02.721Z,35.77
2017-05-22T01:40:47.233Z,35.19
2017-05-22T01:43:18.702Z,35
2017-05-22T01:43:31.844Z,34.9
2017-05-22T01:44:47.022Z,34.9
2017-05-22T01:45:31.509Z,34.71
2017-05-22T01:46:47.429Z,35.1
2017-05-22T01:47:19.629Z,34.9
2017-05-22T01:47:43.324Z,34.71
2017-05-22T01:50:39.985Z,34.42
2017-05-22T01:51:23.440Z,34.81
2017-05-22T01:52:21.001Z,34.61
2017-05-22T01:53:36.675Z,34.42
2017-05-22T01:54:05.224Z,34.33
2017-05-22T01:54:24.959Z,34.71
2017-05-22T01:55:09.531Z,34.52
2017-05-22T01:56:25.223Z,34.52
2017-05-22T01:57:09.854Z,34.52
2017-05-22T01:57:24.435Z,34.52
2017-05-22T01:58:40.358Z,34.71
2017-05-22T01:59:44.346Z,34.42
2017-05-22T01:59:57.879Z,34.52
2017-05-22T02:02:45.214Z,34.81
2017-05-22T02:03:42.413Z,34.9
2017-05-22T02:04:26.943Z,34.81
2017-05-22T02:05:11.540Z,34.81
2017-05-22T02:07:11.509Z,34.81
2017-05-22T02:08:40.557Z,35.28
2017-05-22T02:09:24.610Z,35.38
2017-05-22T02:10:43.326Z,34.9
2017-05-22T02:10:57.558Z,35.1
2017-05-22T02:11:42.084Z,35.11
2017-05-22T02:11:55.522Z,35.19
2017-05-22T02:12:40.118Z,35.1
2017-05-22T02:13:55.771Z,35.48
2017-05-22T02:14:20.082Z,35.57
2017-05-22T02:15:04.650Z,35.49
2017-05-22T02:17:04.776Z,35.49
2017-05-22T02:22:53.455Z,35.86
2017-05-22T02:23:37.992Z,35.86
2017-05-22T02:23:51.413Z,36.05
2017-05-22T02:25:41.504Z,35.77
2017-05-22T02:27:28.313Z,35.67
2017-05-22T02:27:43.740Z,35.77
2017-05-22T02:32:35.348Z,35.67
2017-05-22T02:33:23.299Z,35.77
2017-05-22T02:34:07.312Z,35.67
2017-05-22T02:37:22.308Z,35.77
2017-05-22T02:37:35.761Z,35.67
2017-05-22T02:37:48.641Z,35.67
2017-05-22T02:38:38.662Z,35.67
2017-05-22T02:40:11.107Z,36.05
2017-05-22T02:40:23.500Z,35.67
2017-05-22T02:41:08.086Z,36.05
2017-05-22T02:44:50.230Z,35.77
2017-05-22T02:46:26.319Z,35.77
2017-05-22T02:46:39.958Z,35.77
2017-05-22T02:49:19.774Z,35.67
2017-05-22T02:50:04.994Z,35.67
2017-05-22T02:50:38.557Z,36.05
2017-05-22T02:51:19.256Z,35.96
2017-05-22T02:52:14.346Z,35.67
2017-05-22T02:52:28.603Z,35.96
2017-05-22T02:52:42.096Z,35.86
2017-05-22T02:53:37.101Z,35.96
2017-05-22T02:54:49.386Z,35.86
2017-05-22T02:55:06.406Z,35.86
2017-05-22T02:55:19.824Z,35.86
2017-05-22T02:55:37.467Z,35.86
2017-05-22T02:56:06.273Z,35.77
2017-05-22T02:56:25.474Z,35.77
2017-05-22T02:59:11.438Z,36.15
2017-05-22T03:00:03.789Z,36.05
2017-05-22T03:00:38.427Z,35.86
2017-05-22T03:00:51.920Z,35.86
2017-05-22T03:01:31.738Z,35.86
2017-05-22T03:01:50.175Z,35.86
2017-05-22T03:03:00.162Z,35.86
2017-05-22T03:03:57.867Z,35.96
2017-05-22T03:04:13.627Z,35.86
2017-05-22T03:04:37.402Z,35.77
2017-05-22T03:04:51.026Z,35.86
2017-05-22T03:05:05.438Z,35.77
2017-05-22T03:05:18.363Z,35.96
2017-05-22T03:05:31.370Z,35.77
2017-05-22T03:05:56.070Z,35.96
2017-05-22T03:06:19.957Z,35.86
2017-05-22T03:06:33.333Z,35.86
2017-05-22T03:07:10.068Z,35.86
2017-05-22T03:07:23.006Z,35.77
2017-05-22T03:07:36.436Z,35.96
2017-05-22T03:07:54.360Z,35.86
2017-05-22T03:08:08.412Z,35.75
2017-05-22T03:08:22.864Z,35.77
2017-05-22T03:08:41.534Z,35.55
2017-05-22T03:08:55.001Z,35.48
2017-05-22T03:09:08.600Z,35.48
2017-05-22T03:09:28.285Z,35.46
2017-05-22T03:09:54.471Z,35.67
2017-05-22T03:10:08.722Z,35.48
2017-05-22T03:10:21.892Z,35.57
2017-05-22T03:10:41.870Z,35.57
2017-05-22T03:10:54.817Z,35.48
2017-05-22T03:11:10.480Z,35.57
2017-05-22T03:11:43.729Z,35.57
2017-05-22T03:12:15.847Z,35.57
2017-05-22T03:12:35.598Z,35.57
2017-05-22T03:12:49.267Z,35.48
2017-05-22T03:13:02.767Z,35.57
2017-05-22T03:13:16.602Z,35.55
2017-05-22T03:13:30.012Z,35.57
2017-05-22T03:13:43.543Z,35.57
2017-05-22T03:13:57.725Z,35.57
2017-05-22T03:14:10.655Z,35.55
2017-05-22T03:14:24.106Z,35.55
2017-05-22T03:14:44.200Z,35.57
2017-05-22T03:14:57.655Z,35.57
2017-05-22T03:15:11.205Z,35.55
2017-05-22T03:15:30.067Z,35.65
2017-05-22T03:15:51.039Z,35.57
2017-05-22T03:16:06.448Z,35.55
2017-05-22T03:17:00.765Z,35.28
2017-05-22T03:17:13.835Z,35.1
2017-05-22T03:17:33.530Z,35.1
2017-05-22T03:17:46.430Z,35.19
2017-05-22T03:18:23.671Z,35.19
2017-05-22T03:18:36.481Z,35.28
2017-05-22T03:18:49.885Z,35.28
2017-05-22T03:19:26.801Z,35.19
2017-05-22T03:20:10.576Z,35.28
2017-05-22T03:20:24.703Z,35.28
2017-05-22T03:20:38.897Z,35.19
2017-05-22T03:20:52.018Z,35.19
2017-05-22T03:21:10.101Z,35.19
2017-05-22T03:21:22.427Z,35
2017-05-22T03:21:36.785Z,35
2017-05-22T03:21:50.730Z,35.19
2017-05-22T03:22:06.348Z,35.28
2017-05-22T03:22:23.761Z,35.19
2017-05-22T03:22:37.166Z,35.19
2017-05-22T03:22:50.679Z,35.28
2017-05-22T03:23:03.613Z,35.19
2017-05-22T03:23:16.470Z,35.1
2017-05-22T03:23:29.893Z,35.28
2017-05-22T03:23:43.230Z,35.19
2017-05-22T03:23:56.400Z,34.81
2017-05-22T03:24:09.355Z,35.19
2017-05-22T03:24:23.672Z,35.1
2017-05-22T03:24:48.280Z,34.9
2017-05-22T03:25:02.520Z,34.9
2017-05-22T03:25:15.355Z,35.1
2017-05-22T03:25:28.779Z,35.1
2017-05-22T03:25:42.193Z,34.81
2017-05-22T03:25:55.090Z,35
2017-05-22T03:26:07.983Z,35.1
2017-05-22T03:26:20.952Z,35
2017-05-22T03:26:34.375Z,35
2017-05-22T03:26:47.877Z,35
2017-05-22T03:27:01.282Z,34.9
2017-05-22T03:27:14.965Z,34.9
2017-05-22T03:27:29.645Z,35
2017-05-22T03:27:46.139Z,35.19
2017-05-22T03:27:59.653Z,35
2017-05-22T03:28:12.509Z,35.1
2017-05-22T03:28:25.910Z,34.9
2017-05-22T03:28:39.322Z,34.81
2017-05-22T03:28:52.813Z,34.9
2017-05-22T03:29:06.611Z,34.9
2017-05-22T03:29:20.082Z,34.9
2017-05-22T03:29:33.719Z,34.9
2017-05-22T03:29:47.796Z,34.9
2017-05-22T03:30:01.303Z,34.81
2017-05-22T03:30:14.238Z,34.9
2017-05-22T03:30:27.688Z,35.19
2017-05-22T03:30:41.080Z,35.19
2017-05-22T03:30:54.482Z,35.28
2017-05-22T03:31:07.320Z,35.28
2017-05-22T03:31:20.187Z,35
2017-05-22T03:31:33.169Z,34.81
2017-05-22T03:31:46.647Z,34.71
2017-05-22T03:32:00.115Z,34.81
2017-05-22T03:32:12.979Z,34.9
2017-05-22T03:32:26.412Z,35
2017-05-22T03:32:38.848Z,34.69
2017-05-22T03:32:52.289Z,34.79
2017-05-22T03:33:05.699Z,35
2017-05-22T03:33:19.067Z,34.9
2017-05-22T03:33:31.400Z,35
2017-05-22T03:33:44.296Z,35
2017-05-22T03:33:57.768Z,34.81
2017-05-22T03:34:10.728Z,35.19
2017-05-22T03:34:24.202Z,35.17
2017-05-22T03:34:37.003Z,34.98
2017-05-22T03:34:50.362Z,34.98
2017-05-22T03:35:03.847Z,34.88
2017-05-22T03:35:16.732Z,35.17
2017-05-22T03:35:29.966Z,35.08
2017-05-22T03:35:42.834Z,34.98
2017-05-22T03:35:56.336Z,35.08
2017-05-22T03:36:09.267Z,35.08
2017-05-22T03:36:22.691Z,35.08
2017-05-22T03:36:35.678Z,34.79
2017-05-22T03:36:49.082Z,35.08
2017-05-22T03:37:02.504Z,35.08
2017-05-22T03:37:15.884Z,34.88
2017-05-22T03:37:29.267Z,34.79
2017-05-22T03:37:42.703Z,34.88
2017-05-22T03:37:56.079Z,34.98
2017-05-22T03:38:08.464Z,34.79
2017-05-22T03:38:21.853Z,34.79
2017-05-22T03:38:34.765Z,34.69
2017-05-22T03:38:48.182Z,34.79
2017-05-22T03:39:01.642Z,34.69
2017-05-22T03:39:14.557Z,34.98
2017-05-22T03:39:27.526Z,34.88
2017-05-22T03:39:40.967Z,34.98
2017-05-22T03:39:54.386Z,34.98
2017-05-22T03:40:07.809Z,34.98
2017-05-22T03:40:20.743Z,34.98
2017-05-22T03:40:34.090Z,34.79
2017-05-22T03:40:47.491Z,34.69
2017-05-22T03:41:00.866Z,34.79
2017-05-22T03:41:14.233Z,34.79
2017-05-22T03:41:27.739Z,34.59
2017-05-22T03:41:41.202Z,34.69
2017-05-22T03:41:54.660Z,34.79
2017-05-22T03:42:07.570Z,34.59
2017-05-22T03:42:21.016Z,34.59
2017-05-22T03:42:33.415Z,34.59
2017-05-22T03:42:46.360Z,34.88
2017-05-22T03:42:59.730Z,34.88
2017-05-22T03:43:12.650Z,34.98
2017-05-22T03:43:26.046Z,34.88
2017-05-22T03:43:38.875Z,34.88
2017-05-22T03:43:52.272Z,34.59
2017-05-22T03:44:05.672Z,34.69
2017-05-22T03:44:18.625Z,34.5
2017-05-22T03:44:31.565Z,34.41
2017-05-22T03:44:44.966Z,34.69
2017-05-22T03:44:58.393Z,34.5
2017-05-22T03:45:11.784Z,34.59
2017-05-22T03:45:24.718Z,34.59
2017-05-22T03:45:38.125Z,34.69
2017-05-22T03:45:51.524Z,34.69
2017-05-22T03:46:04.867Z,34.5
2017-05-22T03:46:17.735Z,34.5
2017-05-22T03:46:31.132Z,34.5
2017-05-22T03:46:44.572Z,34.69
2017-05-22T03:46:58.031Z,34.5
2017-05-22T03:47:11.442Z,34.5
2017-05-22T03:47:24.929Z,34.5
2017-05-22T03:47:37.786Z,34.5
2017-05-22T03:47:51.218Z,34.59
2017-05-22T03:48:04.693Z,34.5
2017-05-22T03:48:17.562Z,34.69
2017-05-22T03:48:31.002Z,34.69
2017-05-22T03:48:44.468Z,34.41
2017-05-22T03:48:57.868Z,34.5
2017-05-22T03:49:11.363Z,34.41
2017-05-22T03:49:24.802Z,34.59
2017-05-22T03:49:38.536Z,34.31
2017-05-22T03:49:51.998Z,34.31
2017-05-22T03:50:05.423Z,34.69
2017-05-22T03:50:18.338Z,34.02
2017-05-22T03:50:32.060Z,34.52
2017-05-22T03:50:44.962Z,34.04
2017-05-22T03:50:58.391Z,34.04
2017-05-22T03:51:11.796Z,33.94
2017-05-22T03:51:24.720Z,34.04
2017-05-22T03:51:38.150Z,34.02
2017-05-22T03:51:51.540Z,34.04
2017-05-22T03:52:04.988Z,34.04
2017-05-22T03:52:18.505Z,34.02
2017-05-22T03:52:31.853Z,34.04
2017-05-22T03:52:45.303Z,33.94
2017-05-22T03:52:58.266Z,34.04
2017-05-22T03:53:11.712Z,34.04
2017-05-22T03:53:24.575Z,34.02
2017-05-22T03:53:38.019Z,33.94
2017-05-22T03:53:51.450Z,33.92
2017-05-22T03:54:04.845Z,34.04
2017-05-22T03:54:18.282Z,33.94
2017-05-22T03:54:31.686Z,34.14
2017-05-22T03:54:45.060Z,33.92
2017-05-22T03:54:58.453Z,34.02
2017-05-22T03:55:11.846Z,34.12
2017-05-22T03:55:25.215Z,33.92
2017-05-22T03:55:38.134Z,33.92
2017-05-22T03:55:51.509Z,33.83
2017-05-22T03:56:04.908Z,34.5
2017-05-22T03:56:18.275Z,34.02
2017-05-22T03:56:31.718Z,34.12
2017-05-22T03:56:45.100Z,34.12
2017-05-22T03:56:58.521Z,34.02
2017-05-22T03:57:11.882Z,34.22
2017-05-22T03:57:25.347Z,34.02
2017-05-22T03:57:38.798Z,34.22
2017-05-22T03:57:52.204Z,34.22
2017-05-22T03:58:05.589Z,34.12
2017-05-22T03:58:18.878Z,34.12
2017-05-22T03:58:30.768Z,34.22
2017-05-22T03:58:44.203Z,34.22
2017-05-22T03:58:57.573Z,34.12
2017-05-22T03:59:10.974Z,34.22
2017-05-22T03:59:24.392Z,34.12
2017-05-22T03:59:36.757Z,34.12
2017-05-22T03:59:50.217Z,34.02
2017-05-22T04:00:03.593Z,34.02
2017-05-22T04:00:15.454Z,33.92
2017-05-22T04:00:28.342Z,33.83
2017-05-22T04:00:41.740Z,33.83
2017-05-22T04:00:55.241Z,34.02
2017-05-22T04:01:08.586Z,33.92
2017-05-22T04:01:21.969Z,33.92
2017-05-22T04:01:35.408Z,33.92
2017-05-22T04:01:48.787Z,34.02
2017-05-22T04:02:02.192Z,33.92
2017-05-22T04:02:15.609Z,33.92
2017-05-22T04:02:28.480Z,33.92
2017-05-22T04:02:41.383Z,34.22
2017-05-22T04:02:54.816Z,34.02
2017-05-22T04:03:08.222Z,34.02
2017-05-22T04:03:21.647Z,34.02
2017-05-22T04:03:33.506Z,34.12
2017-05-22T04:03:46.492Z,34.12
2017-05-22T04:03:59.958Z,34.02
2017-05-22T04:04:12.837Z,34.22
2017-05-22T04:04:26.185Z,33.83
2017-05-22T04:04:39.658Z,34.22
2017-05-22T04:04:51.987Z,34.22
2017-05-22T04:05:04.916Z,34.22
2017-05-22T04:05:18.268Z,34.41
2017-05-22T04:05:31.666Z,34.31
2017-05-22T04:05:44.834Z,34.41
2017-05-22T04:05:58.283Z,34.41
2017-05-22T04:06:11.655Z,33.64
2017-05-22T04:06:25.021Z,34.31
2017-05-22T04:06:37.392Z,34.31
2017-05-22T04:06:50.790Z,34.22
2017-05-22T04:07:04.171Z,34.41
2017-05-22T04:07:16.526Z,33.92
2017-05-22T04:07:29.485Z,34.02
2017-05-22T04:07:42.952Z,34.12
2017-05-22T04:07:56.383Z,34.02
2017-05-22T04:08:09.315Z,34.22
2017-05-22T04:08:22.707Z,34.22
2017-05-22T04:08:35.621Z,34.22
2017-05-22T04:08:48.989Z,34.12
2017-05-22T04:09:02.403Z,34.12
2017-05-22T04:09:15.937Z,34.12
2017-05-22T04:09:29.390Z,33.83
2017-05-22T04:09:42.754Z,34.12
2017-05-22T04:09:54.575Z,34.02
2017-05-22T04:10:08.064Z,34.12
2017-05-22T04:10:21.476Z,34.02
2017-05-22T04:10:34.889Z,34.02
2017-05-22T04:10:47.792Z,34.02
2017-05-22T04:11:01.219Z,33.92
2017-05-22T04:11:14.674Z,33.73
2017-05-22T04:11:28.103Z,33.83
2017-05-22T04:11:41.487Z,33.83
2017-05-22T04:11:54.892Z,33.83
2017-05-22T04:12:08.339Z,34.02
2017-05-22T04:12:21.783Z,33.73
2017-05-22T04:12:34.734Z,33.73
2017-05-22T04:12:48.129Z,33.92
2017-05-22T04:13:01.585Z,33.83
2017-05-22T04:13:15.040Z,34.02
2017-05-22T04:13:28.513Z,33.92
2017-05-22T04:13:41.478Z,34.02
2017-05-22T04:13:54.934Z,33.92
2017-05-22T04:14:08.290Z,33.92
2017-05-22T04:14:21.725Z,34.02
2017-05-22T04:14:35.164Z,33.92
2017-05-22T04:14:48.660Z,34.12
2017-05-22T04:15:02.034Z,33.92
2017-05-22T04:15:15.446Z,33.83
2017-05-22T04:15:28.818Z,33.83
2017-05-22T04:15:41.671Z,33.83
2017-05-22T04:15:55.083Z,33.83
2017-05-22T04:16:08.015Z,33.64
2017-05-22T04:16:21.433Z,33.64
2017-05-22T04:16:34.877Z,33.73
2017-05-22T04:16:46.773Z,33.64
2017-05-22T04:17:00.113Z,33.73
2017-05-22T04:17:13.497Z,33.54
2017-05-22T04:17:26.369Z,33.64
2017-05-22T04:17:39.799Z,33.73
2017-05-22T04:17:52.105Z,33.54
2017-05-22T04:18:05.527Z,33.54
2017-05-22T04:18:18.920Z,33.73
2017-05-22T04:18:31.815Z,33.73
2017-05-22T04:18:45.254Z,33.64
2017-05-22T04:18:58.141Z,33.73
2017-05-22T04:19:11.633Z,33.54
2017-05-22T04:19:25.019Z,33.64
2017-05-22T04:19:38.420Z,33.64
2017-05-22T04:19:51.765Z,33.64
2017-05-22T04:20:05.099Z,33.54
2017-05-22T04:20:18.511Z,33.64
2017-05-22T04:20:31.426Z,33.64
2017-05-22T04:20:45.290Z,33.73
2017-05-22T04:20:57.653Z,33.64
2017-05-22T04:21:10.539Z,33.73
2017-05-22T04:21:23.987Z,33.92
2017-05-22T04:21:37.402Z,33.64
2017-05-22T04:21:50.783Z,33.64
2017-05-22T04:22:04.127Z,33.45
2017-05-22T04:22:17.596Z,33.54
2017-05-22T04:22:30.029Z,33.54
2017-05-22T04:22:43.453Z,33.64
2017-05-22T04:22:56.875Z,33.54
2017-05-22T04:23:10.301Z,33.45
2017-05-22T04:23:22.717Z,33.64
2017-05-22T04:23:36.128Z,33.54
2017-05-22T04:23:49.614Z,33.45
2017-05-22T04:24:03.071Z,33.54
2017-05-22T04:24:15.431Z,33.54
2017-05-22T04:24:28.336Z,33.54
2017-05-22T04:24:41.739Z,33.45
2017-05-22T04:24:55.134Z,33.45
2017-05-22T04:25:08.509Z,33.45
2017-05-22T04:25:21.893Z,33.45
2017-05-22T04:25:35.306Z,33.35
2017-05-22T04:25:48.724Z,33.35
2017-05-22T04:26:02.175Z,33.54
2017-05-22T04:26:15.587Z,33.54
2017-05-22T04:26:28.938Z,33.45
2017-05-22T04:26:42.368Z,33.64
2017-05-22T04:26:55.739Z,33.35
2017-05-22T04:27:09.205Z,33.54
2017-05-22T04:27:22.075Z,33.64
2017-05-22T04:27:35.485Z,33.54
2017-05-22T04:27:48.873Z,33.45
2017-05-22T04:28:01.723Z,33.45
2017-05-22T04:28:14.670Z,33.64
2017-05-22T04:28:27.556Z,33.54
2017-05-22T04:28:40.916Z,33.45
2017-05-22T04:28:54.332Z,33.45
2017-05-22T04:29:07.751Z,33.54
2017-05-22T04:29:21.113Z,33.64
2017-05-22T04:29:34.564Z,33.64
2017-05-22T04:29:47.486Z,33.54
2017-05-22T04:29:59.894Z,33.45
2017-05-22T04:30:12.825Z,33.64
2017-05-22T04:30:25.693Z,33.64
2017-05-22T04:30:39.119Z,33.54
2017-05-22T04:30:52.546Z,33.45
2017-05-22T04:31:05.948Z,33.64
2017-05-22T04:31:19.391Z,33.45
2017-05-22T04:31:32.237Z,33.45
2017-05-22T04:31:45.140Z,33.45
2017-05-22T04:31:58.636Z,33.54
2017-05-22T04:32:12.091Z,33.45
2017-05-22T04:32:25.077Z,33.45
2017-05-22T04:32:38.030Z,33.54
2017-05-22T04:32:51.439Z,33.64
2017-05-22T04:33:04.796Z,33.54
2017-05-22T04:33:18.249Z,33.64
2017-05-22T04:33:31.750Z,33.45
2017-05-22T04:33:45.267Z,33.54
2017-05-22T04:33:58.729Z,33.54
2017-05-22T04:34:12.141Z,33.45
2017-05-22T04:34:25.522Z,33.25
2017-05-22T04:34:37.819Z,33.54
2017-05-22T04:34:50.700Z,33.45
2017-05-22T04:35:03.561Z,33.35
2017-05-22T04:35:16.987Z,33.35
2017-05-22T04:35:30.365Z,33.54
2017-05-22T04:35:43.382Z,33.25
2017-05-22T04:35:56.518Z,33.25
2017-05-22T04:36:09.466Z,33.25
2017-05-22T04:36:22.779Z,33.25
2017-05-22T04:36:36.121Z,33.35
2017-05-22T04:36:49.571Z,33.45
2017-05-22T04:37:02.949Z,33.35
2017-05-22T04:37:15.873Z,33.35
2017-05-22T04:37:29.260Z,33.25
2017-05-22T04:37:42.119Z,33.45
2017-05-22T04:37:55.528Z,33.35
2017-05-22T04:38:08.963Z,33.35
2017-05-22T04:38:21.865Z,33.45
2017-05-22T04:38:35.249Z,33.16
2017-05-22T04:38:48.095Z,33.45
2017-05-22T04:39:01.529Z,33.35
2017-05-22T04:39:14.959Z,33.45
2017-05-22T04:39:28.279Z,33.35
2017-05-22T04:39:41.687Z,33.35
2017-05-22T04:39:55.112Z,33.25
2017-05-22T04:40:08.585Z,33.35
2017-05-22T04:40:21.970Z,32.87
2017-05-22T04:40:35.397Z,33.25
2017-05-22T04:40:48.800Z,32.78
2017-05-22T04:41:02.196Z,33.35
2017-05-22T04:41:15.594Z,33.25
2017-05-22T04:41:28.985Z,32.87
2017-05-22T04:41:41.330Z,33.16
2017-05-22T04:41:54.769Z,32.87
2017-05-22T04:42:08.254Z,33.16
2017-05-22T04:42:21.711Z,32.87
2017-05-22T04:42:34.652Z,32.97
2017-05-22T04:42:48.039Z,33.06
2017-05-22T04:43:01.469Z,33.16
2017-05-22T04:43:14.880Z,32.87
2017-05-22T04:43:28.340Z,33.16
2017-05-22T04:43:41.736Z,32.87
2017-05-22T04:43:55.217Z,33.06
2017-05-22T04:44:08.623Z,33.06
2017-05-22T04:44:22.027Z,32.97
2017-05-22T04:44:35.509Z,32.97
2017-05-22T04:44:48.269Z,32.97
2017-05-22T04:45:01.646Z,32.97
2017-05-22T04:45:15.085Z,32.97
2017-05-22T04:45:28.497Z,32.97
2017-05-22T04:45:41.906Z,33.06
2017-05-22T04:45:55.357Z,33.06
2017-05-22T04:46:08.704Z,32.97
2017-05-22T04:46:22.161Z,33.06
2017-05-22T04:46:35.611Z,32.97
2017-05-22T04:46:48.521Z,33.06
2017-05-22T04:47:01.942Z,33.16
2017-05-22T04:47:14.774Z,33.06
2017-05-22T04:47:28.172Z,33.16
2017-05-22T04:47:41.157Z,33.16
2017-05-22T04:47:54.602Z,33.16
2017-05-22T04:48:07.514Z,33.16
2017-05-22T04:48:20.396Z,33.16
2017-05-22T04:48:33.793Z,33.16
2017-05-22T04:48:47.209Z,33.06
2017-05-22T04:49:00.718Z,33.06
2017-05-22T04:49:13.539Z,33.25
2017-05-22T04:49:26.434Z,33.06
2017-05-22T04:49:38.742Z,32.97
2017-05-22T04:49:52.168Z,33.06
2017-05-22T04:50:05.085Z,33.06
2017-05-22T04:50:17.963Z,32.78
2017-05-22T04:50:30.825Z,32.68
2017-05-22T04:50:44.198Z,32.68
2017-05-22T04:50:57.841Z,32.78
2017-05-22T04:51:10.733Z,32.78
2017-05-22T04:51:23.637Z,32.78
2017-05-22T04:51:37.068Z,32.87
2017-05-22T04:51:50.410Z,32.78
2017-05-22T04:52:03.799Z,33.06
2017-05-22T04:52:17.188Z,32.87
2017-05-22T04:52:30.656Z,32.78
2017-05-22T04:52:43.518Z,32.87
2017-05-22T04:52:56.936Z,32.87
2017-05-22T04:53:09.801Z,32.87
2017-05-22T04:53:23.260Z,32.87
2017-05-22T04:53:36.654Z,32.87
2017-05-22T04:53:49.031Z,32.97
2017-05-22T04:54:02.437Z,32.87
2017-05-22T04:54:15.833Z,32.87
2017-05-22T04:54:29.229Z,32.78
2017-05-22T04:54:42.176Z,32.59
2017-05-22T04:54:55.569Z,32.59
2017-05-22T04:55:08.993Z,32.97
2017-05-22T04:55:21.818Z,32.49
2017-05-22T04:55:34.701Z,32.97
2017-05-22T04:55:48.114Z,32.87
2017-05-22T04:56:01.511Z,32.87
2017-05-22T04:56:14.462Z,32.97
2017-05-22T04:56:27.874Z,32.97
2017-05-22T04:56:41.343Z,32.97
2017-05-22T04:56:54.738Z,32.78
2017-05-22T04:57:08.195Z,32.78
2017-05-22T04:57:21.606Z,32.79
2017-05-22T04:57:35.051Z,32.98
2017-05-22T04:57:47.858Z,32.89
2017-05-22T04:58:01.206Z,32.79
2017-05-22T04:58:14.579Z,32.98
2017-05-22T04:58:27.471Z,33.08
2017-05-22T04:58:40.911Z,32.79
2017-05-22T04:58:54.344Z,33.08
2017-05-22T04:59:08.107Z,32.98
2017-05-22T04:59:21.514Z,32.79
2017-05-22T04:59:34.867Z,32.98
2017-05-22T04:59:48.257Z,32.89
2017-05-22T05:00:01.708Z,32.98
2017-05-22T05:00:15.105Z,33.08
2017-05-22T05:00:28.007Z,32.79
2017-05-22T05:00:41.389Z,32.89
2017-05-22T05:00:54.816Z,32.89
2017-05-22T05:01:08.250Z,32.59
2017-05-22T05:01:21.701Z,32.87
2017-05-22T05:01:35.116Z,32.89
2017-05-22T05:01:47.995Z,32.89
2017-05-22T05:02:01.439Z,32.89
2017-05-22T05:02:14.940Z,32.98
2017-05-22T05:02:28.331Z,32.98
2017-05-22T05:02:41.166Z,33.08
2017-05-22T05:02:54.648Z,32.97
2017-05-22T05:03:08.143Z,32.87
2017-05-22T05:03:21.548Z,32.97
2017-05-22T05:03:34.923Z,32.97
2017-05-22T05:03:48.305Z,32.87
2017-05-22T05:04:01.778Z,32.68
2017-05-22T05:04:15.257Z,32.97
2017-05-22T05:04:27.616Z,32.97
2017-05-22T05:04:41.051Z,32.59
2017-05-22T05:04:54.431Z,32.97
2017-05-22T05:05:07.278Z,32.87
2017-05-22T05:05:20.231Z,32.68
2017-05-22T05:05:33.541Z,32.97
2017-05-22T05:05:46.455Z,32.87
2017-05-22T05:06:00.157Z,32.97
2017-05-22T05:06:13.617Z,32.87
2017-05-22T05:06:26.521Z,32.97
2017-05-22T05:06:39.847Z,32.87
2017-05-22T05:06:53.202Z,32.97
2017-05-22T05:07:06.609Z,33.06
2017-05-22T05:07:19.981Z,32.97
2017-05-22T05:07:33.338Z,32.76
2017-05-22T05:07:46.208Z,32.68
2017-05-22T05:07:59.133Z,32.59
2017-05-22T05:08:12.647Z,32.59
2017-05-22T05:08:26.014Z,32.68
2017-05-22T05:08:39.382Z,32.59
2017-05-22T05:08:52.807Z,32.49
2017-05-22T05:09:06.266Z,32.78
2017-05-22T05:09:19.712Z,32.78
2017-05-22T05:09:32.682Z,32.68
2017-05-22T05:09:46.056Z,32.68
2017-05-22T05:09:59.457Z,32.68
2017-05-22T05:10:12.884Z,32.59
2017-05-22T05:10:25.800Z,32.59
2017-05-22T05:10:39.254Z,32.39
2017-05-22T05:10:52.742Z,32.2
2017-05-22T05:11:06.165Z,32.38
2017-05-22T05:11:19.552Z,32.18
2017-05-22T05:11:32.927Z,32.29
2017-05-22T05:11:46.452Z,32.18
2017-05-22T05:11:59.349Z,32.28
2017-05-22T05:12:12.733Z,32.28
2017-05-22T05:12:25.629Z,32.28
2017-05-22T05:12:39.035Z,32.39
2017-05-22T05:12:52.433Z,32.38
2017-05-22T05:13:05.847Z,32.39
2017-05-22T05:13:19.306Z,32.28
2017-05-22T05:13:32.821Z,32.1
2017-05-22T05:13:46.278Z,32.2
2017-05-22T05:13:59.695Z,32.18
2017-05-22T05:14:13.205Z,32.1
2017-05-22T05:14:26.691Z,31.92
2017-05-22T05:14:40.087Z,32.39
2017-05-22T05:14:53.514Z,32.09
2017-05-22T05:15:06.874Z,32.1
2017-05-22T05:15:20.291Z,31.92
2017-05-22T05:15:33.756Z,31.92
2017-05-22T05:15:46.107Z,31.9
2017-05-22T05:15:59.525Z,32.01
2017-05-22T05:16:13.022Z,31.99
2017-05-22T05:16:25.875Z,31.9
2017-05-22T05:16:38.790Z,32.01
2017-05-22T05:16:52.276Z,32.1
2017-05-22T05:17:05.690Z,32.1
2017-05-22T05:17:19.146Z,32.01
2017-05-22T05:17:32.648Z,31.92
2017-05-22T05:17:46.071Z,32.01
2017-05-22T05:17:59.533Z,32.01
2017-05-22T05:18:12.959Z,31.99
2017-05-22T05:18:25.846Z,31.92
2017-05-22T05:18:39.283Z,32.01
2017-05-22T05:18:52.169Z,31.99
2017-05-22T05:19:05.514Z,32.01
2017-05-22T05:19:18.979Z,32.01
2017-05-22T05:19:32.463Z,32.01
2017-05-22T05:19:45.918Z,31.72
2017-05-22T05:19:58.764Z,31.61
2017-05-22T05:20:11.670Z,31.8
2017-05-22T05:20:25.107Z,31.71
2017-05-22T05:20:38.597Z,31.82
2017-05-22T05:20:51.948Z,31.8
2017-05-22T05:21:05.712Z,31.82
2017-05-22T05:21:19.198Z,31.92
2017-05-22T05:21:32.657Z,31.9
2017-05-22T05:21:45.578Z,31.9
2017-05-22T05:21:58.977Z,31.53
2017-05-22T05:22:11.386Z,31.42
2017-05-22T05:22:24.775Z,31.32
2017-05-22T05:22:38.204Z,31.53
2017-05-22T05:22:51.088Z,31.63
2017-05-22T05:23:04.543Z,31.42
2017-05-22T05:23:17.965Z,31.32
2017-05-22T05:23:31.416Z,31.24
2017-05-22T05:23:44.845Z,31.53
2017-05-22T05:23:58.305Z,31.42
2017-05-22T05:24:11.778Z,31.53
2017-05-22T05:24:25.213Z,31.53
2017-05-22T05:24:38.620Z,31.53
2017-05-22T05:24:52.038Z,31.53
2017-05-22T05:25:05.404Z,31.15
2017-05-22T05:25:17.816Z,31.15
2017-05-22T05:25:31.197Z,30.96
2017-05-22T05:25:44.595Z,31.24
2017-05-22T05:25:58.078Z,31.24
2017-05-22T05:26:11.525Z,31.05
2017-05-22T05:26:25.002Z,31.34
2017-05-22T05:26:37.416Z,31.34
2017-05-22T05:26:50.781Z,31.24
2017-05-22T05:27:03.689Z,31.34
2017-05-22T05:27:17.166Z,31.24
2017-05-22T05:27:30.646Z,31.34
2017-05-22T05:27:43.526Z,31.34
2017-05-22T05:27:56.929Z,31.15
2017-05-22T05:28:10.385Z,31.34
2017-05-22T05:28:23.838Z,31.34
2017-05-22T05:28:37.303Z,31.15
2017-05-22T05:28:49.736Z,31.15
2017-05-22T05:29:03.173Z,31.15
2017-05-22T05:29:16.107Z,31.24
2017-05-22T05:29:29.479Z,31.24
2017-05-22T05:29:42.890Z,31.34
2017-05-22T05:29:55.903Z,31.34
2017-05-22T05:30:09.361Z,31.34
2017-05-22T05:30:22.814Z,31.34
2017-05-22T05:30:35.183Z,31.24
2017-05-22T05:30:48.577Z,31.34
2017-05-22T05:31:01.962Z,31.24
2017-05-22T05:31:15.416Z,31.43
2017-05-22T05:31:28.798Z,31.15
2017-05-22T05:31:41.731Z,31.05
2017-05-22T05:31:55.163Z,31.15
2017-05-22T05:32:08.607Z,30.96
2017-05-22T05:32:21.469Z,31.16
2017-05-22T05:32:34.863Z,31.07